Terminal Aerodrome Forecast
Issued by NWS Wilmington, OH

Home | Current Version | Previous Version | Graphics & Text | Print | Product List | Glossary Off
Versions: 1 2 3 4 5 6 7 8 9 10 11 12 13 14 15 16 17

738
FTUS41 KILN 092337
TAFCMH
TAF
KCMH 092337Z 1000/1024 24010KT 5SM -SN OVC015
     FM100200 27010G18KT 5SM -SN OVC015
      TEMPO 1002/1004 2SM -SN
     FM100600 28010KT P6SM OVC020
     FM101300 25010KT P6SM SCT025 OVC100
     FM102200 24012KT P6SM BKN050=

USA.gov is the U.S. government's official web portal to all federal, state and local government web resources and services.